LLSDLCLK

Guest
Details From LLSD - Sde Dov
To LCLK - Larnaca
Flight Number -
Tags generated
Created
Modified
Stats Distance 176 nm / 325 km
Max Altitude 20,500 ft / 6,248 m
Waypoints 3
Social Downloads 2
Likes 0
Share VATSIM

Download

Looking for another format? Having issues loading an existing format? Contact us
Advertisement - Login to hide

Notes

Basic altitude profile: - Ascent Rate: 2500ft/min - Ascent Speed: 250kts - Cruise Altitude: 35000ft - Cruise Speed: 420kts - Descent Rate: 1500ft/min - Descent Speed: 250kts Options: - Use NATs: yes - Use PACOTS: yes - Use low airways: yes - Use high airways: yes

Route

LLSD TIROS LCLK

ID Type Via Altitude Latitude Longitude Leg Dist Tot Dist Heading (true) Name
O LLSD APT - 0 ft / 0 m 32.11466˚ 34.78224˚ - 0 nm - Sde Dov
TIROS FIX - 20,500 ft / 6,248 m 33.30000˚ 34.31667˚ 74 nm 74 nm 342° / 342° -
O LCLK APT - 0 ft / 0 m 34.87512˚ 33.62483˚ 100 nm 175 nm 340° / 340° Larnaca

Altitude Profile

Advertisement - Login to hide

Weather


0- 5 10 15 20 25 30 35+ Temperature / ° C

Clouds and Precipitation
Forecast for 2018-05-25 12:00 UTC. Updated 4 hours ago

Ground ~20,000 ft ~40,000 ft Winds

LLSD

Details ICAO LLSD (SDV)
Name Sde Dov
Region Israel
Timezone Asia/Jerusalem (UTC+3.0)
Stats Elevation 43 ft / 13 m (AMSL)
Location 32.114661° 34.782238°
Runways 1
Magnetic Variation 4.733° E

METAR

LLSD 251450Z 01012KT CAVOK 26/19 Q1008

Decode

TAF

TAF LLSD 251105Z 2512/2612 32010KT CAVOK BECMG 2516/2518 VRB03KT BECMG 2520/2522 7000 SCT010 PROB40 2522/2605 4000 BR BKN005 BECMG 2605/2607 25005KT 9000 SCT015 BECMG 2609/2611 32012KT TX29/2512Z TN22/2603Z

Decode

Departure Runways

ID Width Length Bearing (true) Bearing (mag) Surface Threshold Offset Overrun Length
03 98 ft / 30 m 5,704 ft / 1,738 m 27.61° 22.88° Asphalt 341 ft / 104 m 0 ft / 0 m
21 98 ft / 30 m 5,704 ft / 1,738 m 207.61° 202.88° Asphalt 230 ft / 70 m 0 ft / 0 m

LCLK

Details ICAO LCLK (LCA)
Name Larnaca
Region Cyprus
Timezone Asia/Nicosia (UTC+3.0)
Stats Elevation 8 ft / 2 m (AMSL)
Location 34.875115° 33.624832°
Runways 1
Magnetic Variation 5.029° E

METAR

LCLK 251500Z 22017KT 9999 FEW025 25/18 Q1006 NOSIG

Decode

TAF

TAF LCLK 251130Z 2512/2612 21020G30KT 9999 FEW025 BECMG 2517/2520 26007KT BECMG 2608/2612 20015KT

Decode

Destination Runways

ID Width Length Bearing (true) Bearing (mag) Surface Threshold Offset Overrun Length
04 148 ft / 45 m 9,771 ft / 2,978 m 45.15° 40.12° Asphalt 0 ft / 0 m 210 ft / 64 m
22 148 ft / 45 m 9,771 ft / 2,978 m 225.17° 220.14° Asphalt 575 ft / 175 m 0 ft / 0 m

Approach Navaids

Runway Type Ident Frequency Range Bearing (true) Bearing (mag) Slope Elevation
22 Localiser ILC 110.30 MHz 18 nm / 33 km 225.17° 220.14° - 8 ft / 2 m (AMSL)
22 Glidescope ILC 110.30 MHz 10 nm / 19 km 225.16° 220.13° 2.75° 24 ft / 7 m (AMSL)
22 DME ILC 110.30 MHz 18 nm / 33 km - - - 20 ft / 6 m (AMSL)

Popular Alternatives